sensor_id;sensor_type;location;lat;lon;timestamp;P1;durP1;ratioP1;P2;durP2;ratioP2
48040;SDS011;33815;48.386;11.738;2022-12-24T00:02:05;0.77;;;0.77;;
48040;SDS011;33815;48.386;11.738;2022-12-24T00:04:30;5.30;;;0.90;;
48040;SDS011;33815;48.386;11.738;2022-12-24T00:06:56;2.05;;;0.98;;
48040;SDS011;33815;48.386;11.738;2022-12-24T00:09:21;0.80;;;0.80;;
48040;SDS011;33815;48.386;11.738;2022-12-24T00:11:46;1.48;;;1.00;;
48040;SDS011;33815;48.386;11.738;2022-12-24T00:14:12;0.60;;;0.60;;
48040;SDS011;33815;48.386;11.738;2022-12-24T00:16:37;0.80;;;0.80;;
48040;SDS011;33815;48.386;11.738;2022-12-24T00:19:02;1.07;;;0.80;;
48040;SDS011;33815;48.386;11.738;2022-12-24T00:21:27;3.33;;;0.90;;
48040;SDS011;33815;48.386;11.738;2022-12-24T00:23:53;0.60;;;0.60;;
48040;SDS011;33815;48.386;11.738;2022-12-24T00:26:18;0.80;;;0.80;;
48040;SDS011;33815;48.386;11.738;2022-12-24T00:28:43;0.80;;;0.80;;
48040;SDS011;33815;48.386;11.738;2022-12-24T00:31:09;1.35;;;1.25;;
48040;SDS011;33815;48.386;11.738;2022-12-24T00:33:36;0.80;;;0.80;;
48040;SDS011;33815;48.386;11.738;2022-12-24T00:36:02;0.73;;;0.73;;
48040;SDS011;33815;48.386;11.738;2022-12-24T00:38:27;1.15;;;0.90;;
48040;SDS011;33815;48.386;11.738;2022-12-24T00:40:57;1.60;;;0.90;;
48040;SDS011;33815;48.386;11.738;2022-12-24T00:43:24;0.70;;;0.70;;
48040;SDS011;33815;48.386;11.738;2022-12-24T00:45:49;0.60;;;0.60;;
48040;SDS011;33815;48.386;11.738;2022-12-24T00:48:14;1.15;;;1.10;;
48040;SDS011;33815;48.386;11.738;2022-12-24T00:50:40;0.63;;;0.60;;
48040;SDS011;33815;48.386;11.738;2022-12-24T00:53:05;0.63;;;0.63;;
48040;SDS011;33815;48.386;11.738;2022-12-24T00:55:30;0.70;;;0.70;;
48040;SDS011;33815;48.386;11.738;2022-12-24T00:57:55;1.35;;;0.80;;
48040;SDS011;33815;48.386;11.738;2022-12-24T01:00:21;2.83;;;0.88;;
48040;SDS011;33815;48.386;11.738;2022-12-24T01:02:46;0.75;;;0.75;;
48040;SDS011;33815;48.386;11.738;2022-12-24T01:05:11;1.33;;;0.77;;
48040;SDS011;33815;48.386;11.738;2022-12-24T01:07:38;1.08;;;0.80;;
48040;SDS011;33815;48.386;11.738;2022-12-24T01:10:08;0.82;;;0.70;;
48040;SDS011;33815;48.386;11.738;2022-12-24T01:12:34;0.80;;;0.80;;
48040;SDS011;33815;48.386;11.738;2022-12-24T01:15:00;2.28;;;0.80;;
48040;SDS011;33815;48.386;11.738;2022-12-24T01:17:25;1.70;;;0.73;;
48040;SDS011;33815;48.386;11.738;2022-12-24T01:19:51;2.88;;;0.80;;
48040;SDS011;33815;48.386;11.738;2022-12-24T01:22:16;0.77;;;0.77;;
48040;SDS011;33815;48.386;11.738;2022-12-24T01:24:41;1.10;;;0.70;;
48040;SDS011;33815;48.386;11.738;2022-12-24T01:27:07;1.38;;;0.85;;
48040;SDS011;33815;48.386;11.738;2022-12-24T01:29:33;0.77;;;0.70;;
48040;SDS011;33815;48.386;11.738;2022-12-24T01:31:58;2.25;;;0.93;;
48040;SDS011;33815;48.386;11.738;2022-12-24T01:34:23;0.70;;;0.70;;
48040;SDS011;33815;48.386;11.738;2022-12-24T01:36:49;1.40;;;0.80;;
48040;SDS011;33815;48.386;11.738;2022-12-24T01:39:14;0.70;;;0.70;;
48040;SDS011;33815;48.386;11.738;2022-12-24T01:41:39;1.38;;;1.17;;
48040;SDS011;33815;48.386;11.738;2022-12-24T01:46:57;2.13;;;1.15;;
48040;SDS011;33815;48.386;11.738;2022-12-24T01:49:36;2.17;;;1.13;;
48040;SDS011;33815;48.386;11.738;2022-12-24T01:52:09;3.17;;;1.02;;
48040;SDS011;33815;48.386;11.738;2022-12-24T01:54:47;1.65;;;1.10;;
48040;SDS011;33815;48.386;11.738;2022-12-24T01:59:51;1.17;;;1.08;;
48040;SDS011;33815;48.386;11.738;2022-12-24T02:02:19;0.90;;;0.90;;
48040;SDS011;33815;48.386;11.738;2022-12-24T02:07:43;0.90;;;0.90;;
48040;SDS011;33815;48.386;11.738;2022-12-24T02:10:11;1.00;;;0.98;;
48040;SDS011;33815;48.386;11.738;2022-12-24T02:12:37;3.00;;;1.20;;
48040;SDS011;33815;48.386;11.738;2022-12-24T02:15:04;1.48;;;1.38;;
48040;SDS011;33815;48.386;11.738;2022-12-24T02:17:39;1.88;;;1.60;;
48040;SDS011;33815;48.386;11.738;2022-12-24T02:22:59;2.65;;;1.05;;
48040;SDS011;33815;48.386;11.738;2022-12-24T02:30:58;1.13;;;1.00;;
48040;SDS011;33815;48.386;11.738;2022-12-24T02:33:30;2.10;;;1.10;;
48040;SDS011;33815;48.386;11.738;2022-12-24T02:36:12;0.98;;;0.98;;
48040;SDS011;33815;48.386;11.738;2022-12-24T02:38:43;0.80;;;0.80;;
48040;SDS011;33815;48.386;11.738;2022-12-24T02:44:14;1.40;;;1.30;;
48040;SDS011;33815;48.386;11.738;2022-12-24T02:46:40;0.90;;;0.90;;
48040;SDS011;33815;48.386;11.738;2022-12-24T02:49:05;1.15;;;1.08;;
48040;SDS011;33815;48.386;11.738;2022-12-24T02:51:30;1.60;;;1.15;;
48040;SDS011;33815;48.386;11.738;2022-12-24T02:53:56;2.03;;;1.00;;
48040;SDS011;33815;48.386;11.738;2022-12-24T02:56:37;2.25;;;0.90;;
48040;SDS011;33815;48.386;11.738;2022-12-24T03:07:51;1.27;;;1.20;;
48040;SDS011;33815;48.386;11.738;2022-12-24T03:10:28;1.00;;;0.95;;
48040;SDS011;33815;48.386;11.738;2022-12-24T03:13:02;1.77;;;1.05;;
48040;SDS011;33815;48.386;11.738;2022-12-24T03:15:31;1.05;;;0.98;;
48040;SDS011;33815;48.386;11.738;2022-12-24T03:17:59;2.85;;;1.40;;
48040;SDS011;33815;48.386;11.738;2022-12-24T03:20:41;1.00;;;1.00;;
48040;SDS011;33815;48.386;11.738;2022-12-24T03:23:26;2.58;;;1.13;;
48040;SDS011;33815;48.386;11.738;2022-12-24T03:25:52;1.80;;;1.33;;
48040;SDS011;33815;48.386;11.738;2022-12-24T03:28:18;5.22;;;1.33;;
48040;SDS011;33815;48.386;11.738;2022-12-24T03:30:48;1.52;;;1.15;;
48040;SDS011;33815;48.386;11.738;2022-12-24T03:33:14;3.50;;;1.08;;
48040;SDS011;33815;48.386;11.738;2022-12-24T03:35:40;1.83;;;1.00;;
48040;SDS011;33815;48.386;11.738;2022-12-24T03:38:05;1.00;;;0.88;;
48040;SDS011;33815;48.386;11.738;2022-12-24T03:40:31;1.60;;;1.08;;
48040;SDS011;33815;48.386;11.738;2022-12-24T03:42:56;2.42;;;1.13;;
48040;SDS011;33815;48.386;11.738;2022-12-24T03:45:22;1.27;;;1.00;;
48040;SDS011;33815;48.386;11.738;2022-12-24T03:47:47;4.45;;;1.35;;
48040;SDS011;33815;48.386;11.738;2022-12-24T03:50:12;2.83;;;1.70;;
48040;SDS011;33815;48.386;11.738;2022-12-24T03:52:38;2.83;;;1.30;;
48040;SDS011;33815;48.386;11.738;2022-12-24T03:55:03;2.60;;;1.23;;
48040;SDS011;33815;48.386;11.738;2022-12-24T03:57:29;3.45;;;1.35;;
48040;SDS011;33815;48.386;11.738;2022-12-24T03:59:54;2.28;;;0.82;;
48040;SDS011;33815;48.386;11.738;2022-12-24T04:02:19;5.53;;;1.60;;
48040;SDS011;33815;48.386;11.738;2022-12-24T04:04:45;7.23;;;1.63;;
48040;SDS011;33815;48.386;11.738;2022-12-24T04:07:10;1.70;;;1.13;;
48040;SDS011;33815;48.386;11.738;2022-12-24T04:09:35;3.75;;;1.15;;
48040;SDS011;33815;48.386;11.738;2022-12-24T04:12:01;3.85;;;1.27;;
48040;SDS011;33815;48.386;11.738;2022-12-24T04:14:26;1.15;;;1.05;;
48040;SDS011;33815;48.386;11.738;2022-12-24T04:16:51;1.33;;;1.23;;
48040;SDS011;33815;48.386;11.738;2022-12-24T04:19:17;3.05;;;1.25;;
48040;SDS011;33815;48.386;11.738;2022-12-24T04:21:42;1.67;;;1.03;;
48040;SDS011;33815;48.386;11.738;2022-12-24T04:24:07;1.37;;;1.20;;
48040;SDS011;33815;48.386;11.738;2022-12-24T04:26:32;1.95;;;0.98;;
48040;SDS011;33815;48.386;11.738;2022-12-24T04:28:58;5.03;;;2.17;;
48040;SDS011;33815;48.386;11.738;2022-12-24T04:31:23;3.88;;;1.95;;
48040;SDS011;33815;48.386;11.738;2022-12-24T04:33:49;1.00;;;1.00;;
48040;SDS011;33815;48.386;11.738;2022-12-24T04:36:16;2.40;;;1.13;;
48040;SDS011;33815;48.386;11.738;2022-12-24T04:38:42;5.25;;;1.25;;
48040;SDS011;33815;48.386;11.738;2022-12-24T04:41:12;1.60;;;1.00;;
48040;SDS011;33815;48.386;11.738;2022-12-24T04:43:39;2.15;;;1.00;;
48040;SDS011;33815;48.386;11.738;2022-12-24T04:46:06;2.97;;;0.82;;
48040;SDS011;33815;48.386;11.738;2022-12-24T04:48:32;1.25;;;0.90;;
48040;SDS011;33815;48.386;11.738;2022-12-24T04:50:59;1.88;;;1.10;;
48040;SDS011;33815;48.386;11.738;2022-12-24T04:53:26;1.67;;;1.13;;
48040;SDS011;33815;48.386;11.738;2022-12-24T04:55:51;0.93;;;0.93;;
48040;SDS011;33815;48.386;11.738;2022-12-24T04:58:16;1.25;;;1.15;;
48040;SDS011;33815;48.386;11.738;2022-12-24T05:00:42;1.63;;;1.13;;
48040;SDS011;33815;48.386;11.738;2022-12-24T05:03:07;2.60;;;1.00;;
48040;SDS011;33815;48.386;11.738;2022-12-24T05:05:32;3.10;;;0.80;;
48040;SDS011;33815;48.386;11.738;2022-12-24T05:07:57;2.13;;;1.10;;
48040;SDS011;33815;48.386;11.738;2022-12-24T05:10:22;1.50;;;1.03;;
48040;SDS011;33815;48.386;11.738;2022-12-24T05:12:48;1.23;;;1.10;;
48040;SDS011;33815;48.386;11.738;2022-12-24T05:15:13;2.50;;;1.43;;
48040;SDS011;33815;48.386;11.738;2022-12-24T05:17:38;2.65;;;1.25;;
48040;SDS011;33815;48.386;11.738;2022-12-24T05:20:04;1.15;;;1.00;;
48040;SDS011;33815;48.386;11.738;2022-12-24T05:22:30;1.35;;;1.20;;
48040;SDS011;33815;48.386;11.738;2022-12-24T05:25:13;3.28;;;1.23;;
48040;SDS011;33815;48.386;11.738;2022-12-24T05:27:57;4.82;;;1.05;;
48040;SDS011;33815;48.386;11.738;2022-12-24T05:30:22;3.40;;;1.13;;
48040;SDS011;33815;48.386;11.738;2022-12-24T05:32:48;8.57;;;1.42;;
48040;SDS011;33815;48.386;11.738;2022-12-24T05:35:13;4.20;;;1.43;;
48040;SDS011;33815;48.386;11.738;2022-12-24T05:37:38;2.58;;;2.03;;
48040;SDS011;33815;48.386;11.738;2022-12-24T05:40:04;5.97;;;1.40;;
48040;SDS011;33815;48.386;11.738;2022-12-24T05:42:29;2.58;;;1.50;;
48040;SDS011;33815;48.386;11.738;2022-12-24T05:44:55;3.15;;;1.33;;
48040;SDS011;33815;48.386;11.738;2022-12-24T05:47:20;2.90;;;1.30;;
48040;SDS011;33815;48.386;11.738;2022-12-24T05:49:45;2.47;;;1.10;;
48040;SDS011;33815;48.386;11.738;2022-12-24T05:52:10;5.43;;;2.00;;
48040;SDS011;33815;48.386;11.738;2022-12-24T05:54:36;3.97;;;1.50;;
48040;SDS011;33815;48.386;11.738;2022-12-24T05:57:01;2.97;;;1.27;;
48040;SDS011;33815;48.386;11.738;2022-12-24T05:59:27;2.83;;;1.40;;
48040;SDS011;33815;48.386;11.738;2022-12-24T06:01:52;5.82;;;1.15;;
48040;SDS011;33815;48.386;11.738;2022-12-24T06:04:17;2.83;;;1.02;;
48040;SDS011;33815;48.386;11.738;2022-12-24T06:06:42;3.37;;;1.30;;
48040;SDS011;33815;48.386;11.738;2022-12-24T06:09:08;2.20;;;1.43;;
48040;SDS011;33815;48.386;11.738;2022-12-24T06:11:34;7.13;;;1.33;;
48040;SDS011;33815;48.386;11.738;2022-12-24T06:13:59;1.52;;;1.35;;
48040;SDS011;33815;48.386;11.738;2022-12-24T06:16:24;2.93;;;1.43;;
48040;SDS011;33815;48.386;11.738;2022-12-24T06:18:50;5.47;;;1.60;;
48040;SDS011;33815;48.386;11.738;2022-12-24T06:21:16;1.85;;;1.23;;
48040;SDS011;33815;48.386;11.738;2022-12-24T06:23:42;2.17;;;0.93;;
48040;SDS011;33815;48.386;11.738;2022-12-24T06:26:10;5.82;;;1.10;;
48040;SDS011;33815;48.386;11.738;2022-12-24T06:28:37;5.35;;;1.27;;
48040;SDS011;33815;48.386;11.738;2022-12-24T06:31:03;2.85;;;1.50;;
48040;SDS011;33815;48.386;11.738;2022-12-24T06:33:30;3.40;;;1.15;;
48040;SDS011;33815;48.386;11.738;2022-12-24T06:35:55;1.85;;;1.13;;
48040;SDS011;33815;48.386;11.738;2022-12-24T06:38:21;1.20;;;1.10;;
48040;SDS011;33815;48.386;11.738;2022-12-24T06:40:46;5.10;;;1.50;;
48040;SDS011;33815;48.386;11.738;2022-12-24T06:43:12;2.38;;;1.23;;
48040;SDS011;33815;48.386;11.738;2022-12-24T06:45:38;3.97;;;1.40;;
48040;SDS011;33815;48.386;11.738;2022-12-24T06:48:04;3.53;;;0.90;;
48040;SDS011;33815;48.386;11.738;2022-12-24T06:50:31;1.20;;;1.00;;
48040;SDS011;33815;48.386;11.738;2022-12-24T06:52:57;1.45;;;1.20;;
48040;SDS011;33815;48.386;11.738;2022-12-24T06:55:23;2.40;;;1.27;;
48040;SDS011;33815;48.386;11.738;2022-12-24T06:57:48;4.17;;;1.20;;
48040;SDS011;33815;48.386;11.738;2022-12-24T07:00:13;1.88;;;1.10;;
48040;SDS011;33815;48.386;11.738;2022-12-24T07:02:39;2.65;;;1.40;;
48040;SDS011;33815;48.386;11.738;2022-12-24T07:05:05;1.30;;;1.20;;
48040;SDS011;33815;48.386;11.738;2022-12-24T07:07:31;4.13;;;1.50;;
48040;SDS011;33815;48.386;11.738;2022-12-24T07:09:56;4.70;;;1.98;;
48040;SDS011;33815;48.386;11.738;2022-12-24T07:12:22;4.68;;;1.92;;
48040;SDS011;33815;48.386;11.738;2022-12-24T07:14:47;2.23;;;1.53;;
48040;SDS011;33815;48.386;11.738;2022-12-24T07:17:12;2.93;;;1.80;;
48040;SDS011;33815;48.386;11.738;2022-12-24T07:19:37;4.10;;;2.00;;
48040;SDS011;33815;48.386;11.738;2022-12-24T07:22:03;3.92;;;1.90;;
48040;SDS011;33815;48.386;11.738;2022-12-24T07:24:28;1.80;;;1.53;;
48040;SDS011;33815;48.386;11.738;2022-12-24T07:26:53;4.05;;;1.63;;
48040;SDS011;33815;48.386;11.738;2022-12-24T07:29:19;3.37;;;1.37;;
48040;SDS011;33815;48.386;11.738;2022-12-24T07:31:44;2.47;;;1.35;;
48040;SDS011;33815;48.386;11.738;2022-12-24T07:34:09;3.53;;;1.47;;
48040;SDS011;33815;48.386;11.738;2022-12-24T07:36:34;1.80;;;1.43;;
48040;SDS011;33815;48.386;11.738;2022-12-24T07:39:00;1.40;;;1.30;;
48040;SDS011;33815;48.386;11.738;2022-12-24T07:41:25;1.83;;;1.25;;
48040;SDS011;33815;48.386;11.738;2022-12-24T07:43:50;1.33;;;1.23;;
48040;SDS011;33815;48.386;11.738;2022-12-24T07:46:15;4.17;;;1.27;;
48040;SDS011;33815;48.386;11.738;2022-12-24T07:48:41;2.75;;;1.58;;
48040;SDS011;33815;48.386;11.738;2022-12-24T07:51:06;4.82;;;1.50;;
48040;SDS011;33815;48.386;11.738;2022-12-24T07:53:31;2.35;;;1.27;;
48040;SDS011;33815;48.386;11.738;2022-12-24T07:55:57;5.90;;;1.25;;
48040;SDS011;33815;48.386;11.738;2022-12-24T07:58:23;1.92;;;1.50;;
48040;SDS011;33815;48.386;11.738;2022-12-24T08:00:48;1.35;;;1.30;;
48040;SDS011;33815;48.386;11.738;2022-12-24T08:03:19;6.40;;;1.30;;
48040;SDS011;33815;48.386;11.738;2022-12-24T08:05:45;1.65;;;1.50;;
48040;SDS011;33815;48.386;11.738;2022-12-24T08:08:12;1.60;;;1.48;;
48040;SDS011;33815;48.386;11.738;2022-12-24T08:10:38;4.03;;;1.77;;
48040;SDS011;33815;48.386;11.738;2022-12-24T08:13:04;2.63;;;1.17;;
48040;SDS011;33815;48.386;11.738;2022-12-24T08:15:29;5.00;;;1.73;;
48040;SDS011;33815;48.386;11.738;2022-12-24T08:17:54;4.67;;;2.00;;
48040;SDS011;33815;48.386;11.738;2022-12-24T08:20:19;6.95;;;1.90;;
48040;SDS011;33815;48.386;11.738;2022-12-24T08:22:45;3.93;;;1.77;;
48040;SDS011;33815;48.386;11.738;2022-12-24T08:25:10;5.85;;;1.50;;
48040;SDS011;33815;48.386;11.738;2022-12-24T08:27:35;7.03;;;1.77;;
48040;SDS011;33815;48.386;11.738;2022-12-24T08:30:01;3.05;;;1.35;;
48040;SDS011;33815;48.386;11.738;2022-12-24T08:32:27;2.25;;;1.45;;
48040;SDS011;33815;48.386;11.738;2022-12-24T08:34:52;7.13;;;1.70;;
48040;SDS011;33815;48.386;11.738;2022-12-24T08:37:18;2.67;;;1.23;;
48040;SDS011;33815;48.386;11.738;2022-12-24T08:39:43;5.28;;;1.35;;
48040;SDS011;33815;48.386;11.738;2022-12-24T08:42:08;4.47;;;1.40;;
48040;SDS011;33815;48.386;11.738;2022-12-24T08:44:34;1.65;;;1.20;;
48040;SDS011;33815;48.386;11.738;2022-12-24T08:46:59;1.92;;;1.30;;
48040;SDS011;33815;48.386;11.738;2022-12-24T08:49:24;5.17;;;1.30;;
48040;SDS011;33815;48.386;11.738;2022-12-24T08:51:50;7.25;;;1.40;;
48040;SDS011;33815;48.386;11.738;2022-12-24T08:54:16;1.75;;;0.95;;
48040;SDS011;33815;48.386;11.738;2022-12-24T08:56:41;2.25;;;1.35;;
48040;SDS011;33815;48.386;11.738;2022-12-24T08:59:07;1.87;;;1.63;;
48040;SDS011;33815;48.386;11.738;2022-12-24T09:01:32;0.93;;;0.80;;
48040;SDS011;33815;48.386;11.738;2022-12-24T09:03:58;1.40;;;1.00;;
48040;SDS011;33815;48.386;11.738;2022-12-24T09:06:25;4.88;;;1.42;;
48040;SDS011;33815;48.386;11.738;2022-12-24T09:08:51;1.60;;;1.00;;
48040;SDS011;33815;48.386;11.738;2022-12-24T09:11:16;3.27;;;1.17;;
48040;SDS011;33815;48.386;11.738;2022-12-24T09:13:42;2.63;;;1.90;;
48040;SDS011;33815;48.386;11.738;2022-12-24T09:16:08;1.42;;;1.17;;
48040;SDS011;33815;48.386;11.738;2022-12-24T09:18:34;1.95;;;1.25;;
48040;SDS011;33815;48.386;11.738;2022-12-24T09:21:03;1.58;;;0.80;;
48040;SDS011;33815;48.386;11.738;2022-12-24T09:23:31;1.08;;;0.93;;
48040;SDS011;33815;48.386;11.738;2022-12-24T09:25:59;2.45;;;0.98;;
48040;SDS011;33815;48.386;11.738;2022-12-24T09:28:24;3.05;;;1.30;;
48040;SDS011;33815;48.386;11.738;2022-12-24T09:30:56;3.85;;;1.00;;
48040;SDS011;33815;48.386;11.738;2022-12-24T09:33:23;1.45;;;1.15;;
48040;SDS011;33815;48.386;11.738;2022-12-24T09:35:50;0.93;;;0.88;;
48040;SDS011;33815;48.386;11.738;2022-12-24T09:38:17;1.20;;;1.10;;
48040;SDS011;33815;48.386;11.738;2022-12-24T09:40:43;6.75;;;2.25;;
48040;SDS011;33815;48.386;11.738;2022-12-24T09:43:12;5.78;;;3.00;;
48040;SDS011;33815;48.386;11.738;2022-12-24T09:45:43;1.92;;;1.45;;
48040;SDS011;33815;48.386;11.738;2022-12-24T09:48:32;1.42;;;1.30;;
48040;SDS011;33815;48.386;11.738;2022-12-24T09:51:03;3.88;;;0.93;;
48040;SDS011;33815;48.386;11.738;2022-12-24T09:53:40;4.95;;;0.98;;
48040;SDS011;33815;48.386;11.738;2022-12-24T09:56:11;2.20;;;0.80;;
48040;SDS011;33815;48.386;11.738;2022-12-24T09:58:44;5.60;;;1.50;;
48040;SDS011;33815;48.386;11.738;2022-12-24T10:01:13;1.77;;;1.42;;
48040;SDS011;33815;48.386;11.738;2022-12-24T10:03:40;1.02;;;0.93;;
48040;SDS011;33815;48.386;11.738;2022-12-24T10:06:17;0.82;;;0.80;;
48040;SDS011;33815;48.386;11.738;2022-12-24T10:11:49;1.85;;;0.90;;
48040;SDS011;33815;48.386;11.738;2022-12-24T10:14:20;5.75;;;0.90;;
48040;SDS011;33815;48.386;11.738;2022-12-24T10:17:05;3.40;;;0.93;;
48040;SDS011;33815;48.386;11.738;2022-12-24T10:19:48;2.20;;;0.85;;
48040;SDS011;33815;48.386;11.738;2022-12-24T10:23:14;1.80;;;1.10;;
48040;SDS011;33815;48.386;11.738;2022-12-24T10:25:29;1.48;;;1.23;;
48040;SDS011;33815;48.386;11.738;2022-12-24T10:27:59;5.45;;;1.02;;
48040;SDS011;33815;48.386;11.738;2022-12-24T10:30:27;1.45;;;0.90;;
48040;SDS011;33815;48.386;11.738;2022-12-24T10:32:53;3.00;;;0.90;;
48040;SDS011;33815;48.386;11.738;2022-12-24T10:35:21;3.42;;;1.00;;
48040;SDS011;33815;48.386;11.738;2022-12-24T10:37:50;1.80;;;1.05;;
48040;SDS011;33815;48.386;11.738;2022-12-24T10:42:53;1.75;;;0.70;;
48040;SDS011;33815;48.386;11.738;2022-12-24T10:45:19;3.08;;;1.10;;
48040;SDS011;33815;48.386;11.738;2022-12-24T10:47:47;3.58;;;0.93;;
48040;SDS011;33815;48.386;11.738;2022-12-24T10:50:23;2.63;;;0.70;;
48040;SDS011;33815;48.386;11.738;2022-12-24T10:53:01;0.82;;;0.80;;
48040;SDS011;33815;48.386;11.738;2022-12-24T10:55:37;3.03;;;0.80;;
48040;SDS011;33815;48.386;11.738;2022-12-24T10:58:06;2.38;;;1.00;;
48040;SDS011;33815;48.386;11.738;2022-12-24T11:00:39;4.15;;;1.40;;
48040;SDS011;33815;48.386;11.738;2022-12-24T11:05:36;1.92;;;0.85;;
48040;SDS011;33815;48.386;11.738;2022-12-24T11:08:10;2.67;;;0.80;;
48040;SDS011;33815;48.386;11.738;2022-12-24T11:11:04;4.20;;;1.20;;
48040;SDS011;33815;48.386;11.738;2022-12-24T11:18:37;1.43;;;1.03;;
48040;SDS011;33815;48.386;11.738;2022-12-24T11:21:09;3.08;;;1.33;;
48040;SDS011;33815;48.386;11.738;2022-12-24T11:23:34;2.92;;;0.98;;
48040;SDS011;33815;48.386;11.738;2022-12-24T11:25:59;1.35;;;1.02;;
48040;SDS011;33815;48.386;11.738;2022-12-24T11:28:26;1.67;;;0.85;;
48040;SDS011;33815;48.386;11.738;2022-12-24T11:30:58;1.17;;;0.80;;
48040;SDS011;33815;48.386;11.738;2022-12-24T11:33:23;2.97;;;1.00;;
48040;SDS011;33815;48.386;11.738;2022-12-24T11:36:03;2.75;;;1.38;;
48040;SDS011;33815;48.386;11.738;2022-12-24T11:38:31;2.33;;;0.93;;
48040;SDS011;33815;48.386;11.738;2022-12-24T11:40:59;2.00;;;0.93;;
48040;SDS011;33815;48.386;11.738;2022-12-24T11:43:32;1.33;;;0.80;;
48040;SDS011;33815;48.386;11.738;2022-12-24T11:46:16;2.80;;;1.02;;
48040;SDS011;33815;48.386;11.738;2022-12-24T11:48:46;1.75;;;0.90;;
48040;SDS011;33815;48.386;11.738;2022-12-24T11:51:23;1.60;;;0.90;;
48040;SDS011;33815;48.386;11.738;2022-12-24T11:54:26;1.83;;;1.00;;
48040;SDS011;33815;48.386;11.738;2022-12-24T11:56:51;3.03;;;0.80;;
48040;SDS011;33815;48.386;11.738;2022-12-24T11:59:32;2.05;;;1.30;;
48040;SDS011;33815;48.386;11.738;2022-12-24T12:05:07;2.33;;;1.13;;
48040;SDS011;33815;48.386;11.738;2022-12-24T12:07:37;1.27;;;0.90;;
48040;SDS011;33815;48.386;11.738;2022-12-24T12:10:04;2.22;;;0.85;;
48040;SDS011;33815;48.386;11.738;2022-12-24T12:12:31;1.33;;;0.73;;
48040;SDS011;33815;48.386;11.738;2022-12-24T12:15:05;3.60;;;0.90;;
48040;SDS011;33815;48.386;11.738;2022-12-24T12:17:58;6.40;;;1.60;;
48040;SDS011;33815;48.386;11.738;2022-12-24T12:20:34;3.20;;;1.10;;
48040;SDS011;33815;48.386;11.738;2022-12-24T12:23:12;1.33;;;0.90;;
48040;SDS011;33815;48.386;11.738;2022-12-24T12:26:05;5.95;;;1.05;;
48040;SDS011;33815;48.386;11.738;2022-12-24T12:33:38;2.67;;;1.10;;
48040;SDS011;33815;48.386;11.738;2022-12-24T12:36:08;2.78;;;1.13;;
48040;SDS011;33815;48.386;11.738;2022-12-24T12:38:35;4.05;;;1.20;;
48040;SDS011;33815;48.386;11.738;2022-12-24T12:41:10;3.22;;;1.10;;
48040;SDS011;33815;48.386;11.738;2022-12-24T12:49:53;2.63;;;0.90;;
48040;SDS011;33815;48.386;11.738;2022-12-24T12:58:24;0.93;;;0.80;;
48040;SDS011;33815;48.386;11.738;2022-12-24T13:00:50;2.35;;;1.13;;
48040;SDS011;33815;48.386;11.738;2022-12-24T13:03:23;2.70;;;1.00;;
48040;SDS011;33815;48.386;11.738;2022-12-24T13:06:20;1.95;;;1.05;;
48040;SDS011;33815;48.386;11.738;2022-12-24T13:09:16;5.65;;;0.85;;
48040;SDS011;33815;48.386;11.738;2022-12-24T13:11:53;0.88;;;0.85;;
48040;SDS011;33815;48.386;11.738;2022-12-24T13:14:48;3.50;;;1.02;;
48040;SDS011;33815;48.386;11.738;2022-12-24T13:22:53;2.42;;;1.00;;
48040;SDS011;33815;48.386;11.738;2022-12-24T13:25:26;4.10;;;1.50;;
48040;SDS011;33815;48.386;11.738;2022-12-24T13:27:55;4.75;;;1.00;;
48040;SDS011;33815;48.386;11.738;2022-12-24T13:30:37;3.43;;;1.00;;
48040;SDS011;33815;48.386;11.738;2022-12-24T13:33:04;6.53;;;1.67;;
48040;SDS011;33815;48.386;11.738;2022-12-24T13:35:33;1.08;;;0.80;;
48040;SDS011;33815;48.386;11.738;2022-12-24T13:40:53;1.35;;;0.90;;
48040;SDS011;33815;48.386;11.738;2022-12-24T13:43:19;1.05;;;0.80;;
48040;SDS011;33815;48.386;11.738;2022-12-24T13:45:46;2.70;;;0.77;;
48040;SDS011;33815;48.386;11.738;2022-12-24T13:48:17;1.70;;;1.13;;
48040;SDS011;33815;48.386;11.738;2022-12-24T13:51:16;4.18;;;1.35;;
48040;SDS011;33815;48.386;11.738;2022-12-24T13:53:44;4.47;;;1.20;;
48040;SDS011;33815;48.386;11.738;2022-12-24T13:58:41;1.93;;;0.80;;
48040;SDS011;33815;48.386;11.738;2022-12-24T14:01:16;1.17;;;0.70;;
48040;SDS011;33815;48.386;11.738;2022-12-24T14:03:52;1.00;;;0.77;;
48040;SDS011;33815;48.386;11.738;2022-12-24T14:06:25;2.97;;;1.10;;
48040;SDS011;33815;48.386;11.738;2022-12-24T14:08:54;1.30;;;0.80;;
48040;SDS011;33815;48.386;11.738;2022-12-24T14:11:23;1.95;;;0.95;;
48040;SDS011;33815;48.386;11.738;2022-12-24T14:16:25;2.88;;;1.10;;
48040;SDS011;33815;48.386;11.738;2022-12-24T14:19:09;1.10;;;1.00;;
48040;SDS011;33815;48.386;11.738;2022-12-24T14:21:42;2.35;;;0.90;;
48040;SDS011;33815;48.386;11.738;2022-12-24T14:24:17;1.17;;;0.80;;
48040;SDS011;33815;48.386;11.738;2022-12-24T14:26:58;4.47;;;1.02;;
48040;SDS011;33815;48.386;11.738;2022-12-24T14:29:33;2.65;;;1.30;;
48040;SDS011;33815;48.386;11.738;2022-12-24T14:32:14;1.58;;;1.02;;
48040;SDS011;33815;48.386;11.738;2022-12-24T14:34:41;1.55;;;1.00;;
48040;SDS011;33815;48.386;11.738;2022-12-24T14:37:07;4.85;;;1.08;;
48040;SDS011;33815;48.386;11.738;2022-12-24T14:39:38;2.35;;;0.93;;
48040;SDS011;33815;48.386;11.738;2022-12-24T14:42:24;0.80;;;0.75;;
48040;SDS011;33815;48.386;11.738;2022-12-24T14:48:08;0.70;;;0.70;;
48040;SDS011;33815;48.386;11.738;2022-12-24T14:51:09;3.15;;;1.30;;
48040;SDS011;33815;48.386;11.738;2022-12-24T14:54:06;3.53;;;1.27;;
48040;SDS011;33815;48.386;11.738;2022-12-24T14:57:03;5.10;;;1.95;;
48040;SDS011;33815;48.386;11.738;2022-12-24T14:59:39;2.40;;;1.52;;
48040;SDS011;33815;48.386;11.738;2022-12-24T15:07:35;2.58;;;1.33;;
48040;SDS011;33815;48.386;11.738;2022-12-24T15:10:03;4.55;;;1.77;;
48040;SDS011;33815;48.386;11.738;2022-12-24T15:12:31;7.15;;;3.65;;
48040;SDS011;33815;48.386;11.738;2022-12-24T15:14:57;3.83;;;2.88;;
48040;SDS011;33815;48.386;11.738;2022-12-24T15:17:22;9.68;;;5.35;;
48040;SDS011;33815;48.386;11.738;2022-12-24T15:19:50;4.32;;;3.03;;
48040;SDS011;33815;48.386;11.738;2022-12-24T15:22:24;10.85;;;4.57;;
48040;SDS011;33815;48.386;11.738;2022-12-24T15:24:52;10.60;;;5.68;;
48040;SDS011;33815;48.386;11.738;2022-12-24T15:27:19;5.32;;;1.77;;
48040;SDS011;33815;48.386;11.738;2022-12-24T15:29:47;2.90;;;1.63;;
48040;SDS011;33815;48.386;11.738;2022-12-24T15:32:16;7.25;;;3.42;;
48040;SDS011;33815;48.386;11.738;2022-12-24T15:34:47;4.70;;;2.00;;
48040;SDS011;33815;48.386;11.738;2022-12-24T15:37:24;35.10;;;15.13;;
48040;SDS011;33815;48.386;11.738;2022-12-24T15:40:17;23.98;;;8.68;;
48040;SDS011;33815;48.386;11.738;2022-12-24T15:42:45;12.73;;;7.47;;
48040;SDS011;33815;48.386;11.738;2022-12-24T15:45:17;4.65;;;3.40;;
48040;SDS011;33815;48.386;11.738;2022-12-24T15:50:17;8.73;;;4.18;;
48040;SDS011;33815;48.386;11.738;2022-12-24T15:52:48;28.23;;;15.32;;
48040;SDS011;33815;48.386;11.738;2022-12-24T15:55:32;15.50;;;7.95;;
48040;SDS011;33815;48.386;11.738;2022-12-24T15:58:01;6.20;;;2.67;;
48040;SDS011;33815;48.386;11.738;2022-12-24T16:00:41;29.77;;;13.93;;
48040;SDS011;33815;48.386;11.738;2022-12-24T16:03:10;22.80;;;13.30;;
48040;SDS011;33815;48.386;11.738;2022-12-24T16:05:42;15.15;;;8.05;;
48040;SDS011;33815;48.386;11.738;2022-12-24T16:10:40;3.42;;;3.03;;
48040;SDS011;33815;48.386;11.738;2022-12-24T16:13:10;2.75;;;2.22;;
48040;SDS011;33815;48.386;11.738;2022-12-24T16:15:40;4.38;;;2.60;;